createdAt,value
2019-05-26T00:00:04.715Z,19
2019-05-26T00:15:04.959Z,18.9
2019-05-26T00:30:04.928Z,18.9
2019-05-26T00:45:04.722Z,18.9
2019-05-26T01:00:04.479Z,18.8
2019-05-26T01:15:04.698Z,18.8
2019-05-26T01:30:04.703Z,18.6
2019-05-26T01:45:04.475Z,18.6
2019-05-26T02:00:04.323Z,18.6
2019-05-26T02:15:04.596Z,18.5
2019-05-26T02:30:04.056Z,18.5
2019-05-26T02:45:04.466Z,18.3
2019-05-26T03:00:04.790Z,18.4
2019-05-26T03:15:04.104Z,18.2
2019-05-26T03:30:04.162Z,18.2
2019-05-26T03:45:04.453Z,18.2
2019-05-26T04:00:04.236Z,18
2019-05-26T04:15:04.999Z,18.1
2019-05-26T04:30:04.759Z,18
2019-05-26T04:45:04.508Z,17.9
2019-05-26T05:00:04.933Z,17.9
2019-05-26T05:15:04.748Z,17.8
2019-05-26T05:30:04.265Z,17.9
2019-05-26T05:45:05.006Z,18.2
2019-05-26T06:00:04.796Z,18.3
2019-05-26T06:15:04.050Z,18.5
2019-05-26T06:30:04.623Z,18.6
2019-05-26T06:45:05.009Z,18.7
2019-05-26T07:00:04.853Z,18.8
2019-05-26T07:15:04.157Z,19.1
2019-05-26T07:30:04.609Z,19.5
2019-05-26T07:45:04.401Z,20.1
2019-05-26T08:00:04.752Z,20.6
2019-05-26T08:15:04.507Z,21.7
2019-05-26T08:30:04.932Z,22.5
2019-05-26T08:45:04.251Z,23.1
2019-05-26T09:00:05.017Z,22.9
2019-05-26T09:15:04.271Z,23.3
2019-05-26T09:30:04.333Z,23.1
2019-05-26T09:45:04.114Z,22.8
2019-05-26T10:00:04.366Z,22.7
2019-05-26T10:15:04.123Z,22.5
2019-05-26T10:30:04.836Z,22.2
2019-05-26T10:45:04.108Z,22.2
2019-05-26T11:00:04.416Z,22.2
2019-05-26T11:15:04.691Z,22.2
2019-05-26T11:30:04.632Z,22.3
2019-05-26T11:45:04.381Z,22.5
2019-05-26T12:00:04.614Z,22.5
2019-05-26T12:15:04.137Z,22.7
2019-05-26T12:30:04.661Z,22.6
2019-05-26T12:45:04.986Z,22.8
2019-05-26T13:00:04.386Z,22.7
2019-05-26T13:15:06.116Z,22.6
2019-05-26T13:30:04.210Z,22.6
2019-05-26T13:45:04.033Z,22.6
2019-05-26T14:00:04.271Z,22.6
2019-05-26T14:15:04.224Z,22.7
2019-05-26T14:30:04.703Z,22.6
2019-05-26T14:45:04.530Z,22.8
2019-05-26T15:00:04.377Z,23
2019-05-26T15:15:04.757Z,23
2019-05-26T15:30:04.740Z,23
2019-05-26T15:45:04.091Z,23
2019-05-26T16:00:04.209Z,23.1
2019-05-26T16:15:04.698Z,23.1
2019-05-26T16:30:04.250Z,23.3
2019-05-26T16:45:04.259Z,23.2
2019-05-26T17:00:05.002Z,23.2
2019-05-26T17:15:04.860Z,23.1
2019-05-26T17:30:04.389Z,23.2
2019-05-26T17:45:09.202Z,23.1
2019-05-26T18:00:04.561Z,23
2019-05-26T18:15:04.762Z,23
2019-05-26T18:30:04.740Z,22.8
2019-05-26T18:45:04.526Z,22.7
2019-05-26T19:00:04.832Z,22.5
2019-05-26T19:15:04.680Z,22.4
2019-05-26T19:30:04.240Z,22.2
2019-05-26T19:45:05.005Z,22.1
2019-05-26T20:00:04.258Z,21.9
2019-05-26T20:15:04.643Z,21.8
2019-05-26T20:30:04.193Z,21.7
2019-05-26T20:45:04.520Z,21.4
2019-05-26T21:00:04.456Z,21.5
2019-05-26T21:15:04.311Z,21.3
2019-05-26T21:30:04.380Z,21.2
2019-05-26T21:45:04.680Z,21.1
2019-05-26T22:00:04.441Z,20.9
2019-05-26T22:15:04.202Z,20.8
2019-05-26T22:30:04.195Z,20.7
2019-05-26T22:45:05.403Z,20.6
2019-05-26T23:00:04.170Z,20.6
2019-05-26T23:15:04.435Z,20.6
2019-05-26T23:30:04.379Z,20.6
2019-05-26T23:45:04.684Z,20.5
